Terminal Aerodrome Forecast
Issued by NWS Cleveland, OH

Home | Current Version | Previous Version | Text Only | Print | Product List | Glossary Off
Versions: 1 2 3 4 5 6 7 8 9 10 11 12 13 14 15 16 17 18 19 20 21 22 23 24 25

000
FTUS41 KCLE 151728
TAFCLE
TAF
KCLE 151728Z 1518/1624 18012G20KT P6SM BKN120 OVC250
     FM152100 19012G20KT 6SM -RA BR SCT015 OVC030
     FM160000 20015G25KT 5SM -SHRA BR OVC007
     FM160300 23015G25KT P6SM OVC007
     FM160700 26015G25KT P6SM SCT015 OVC025
     FM161500 28020G30KT P6SM OVC015
     FM162100 30015G25KT P6SM BKN035=

USA.gov is the U.S. government's official web portal to all federal, state and local government web resources and services.